Time;durP1;ratioP1;P1;durP2;ratioP2;P2;SDS_P1;SDS_P2;PMS_P1;PMS_P2;Temp;Humidity;BMP_temperature;BMP_pressure;BME280_temperature;BME280_humidity;BME280_pressure;Samples;Min_cycle;Max_cycle;Signal;HPM_P1;HPM_P2
2022/07/18 00:01:59;;;;;;;7.85;2.47;;;17.90;87.60;;;;;;5086010;28;20048;-68
2022/07/18 00:04:26;;;;;;;6.38;2.13;;;17.80;87.50;;;;;;5080344;28;20169;-68
2022/07/18 00:06:53;;;;;;;3.05;1.80;;;17.80;87.60;;;;;;5085922;28;20103;-69
2022/07/18 00:09:22;;;;;;;3.45;2.30;;;17.90;87.60;;;;;;5078546;28;20021;-72
2022/07/18 00:11:49;;;;;;;8.57;2.92;;;17.80;87.60;;;;;;5084804;28;20118;-72
2022/07/18 00:14:15;;;;;;;4.35;2.90;;;17.80;87.70;;;;;;5079768;28;20046;-68
2022/07/18 00:16:42;;;;;;;5.82;1.67;;;17.80;88.00;;;;;;5086604;28;20024;-73
2022/07/18 00:19:08;;;;;;;3.75;2.65;;;17.90;88.10;;;;;;5082679;28;20476;-68
2022/07/18 00:21:35;;;;;;;6.57;2.25;;;17.80;88.10;;;;;;5084356;28;20024;-69
2022/07/18 00:24:02;;;;;;;6.45;2.53;;;17.80;88.10;;;;;;5081337;28;20024;-69
2022/07/18 00:26:29;;;;;;;4.22;2.13;;;17.80;88.10;;;;;;5085250;28;20024;-73
2022/07/18 00:28:56;;;;;;;9.38;2.65;;;17.80;88.10;;;;;;5081384;28;20517;-71
2022/07/18 00:31:23;;;;;;;9.60;2.88;;;17.80;88.10;;;;;;5083009;28;20032;-68
2022/07/18 00:33:49;;;;;;;3.70;2.08;;;17.80;88.20;;;;;;5083170;28;20073;-71
2022/07/18 00:36:16;;;;;;;9.25;2.33;;;17.80;88.20;;;;;;5083988;28;20059;-69
2022/07/18 00:38:42;;;;;;;3.60;2.00;;;17.80;88.30;;;;;;5081135;28;20435;-72
2022/07/18 00:41:09;;;;;;;6.57;2.05;;;17.80;88.20;;;;;;5082280;28;20032;-69
2022/07/18 00:43:35;;;;;;;4.00;2.42;;;17.80;88.10;;;;;;5081018;28;20037;-72
2022/07/18 00:46:02;;;;;;;7.30;2.20;;;17.80;88.00;;;;;;5081070;28;20073;-69
2022/07/18 00:48:28;;;;;;;6.47;2.35;;;17.70;87.90;;;;;;5083402;28;20040;-69
2022/07/18 00:50:55;;;;;;;6.60;2.90;;;17.80;88.10;;;;;;5084707;28;20887;-70
2022/07/18 00:53:23;;;;;;;5.20;2.42;;;17.80;88.10;;;;;;5084357;28;20017;-71
2022/07/18 00:55:51;;;;;;;6.72;2.90;;;17.70;88.00;;;;;;5080608;28;20039;-68
2022/07/18 00:58:18;;;;;;;4.65;2.65;;;17.70;88.00;;;;;;5073700;28;20024;-69
2022/07/18 01:03:30;;;;;;;5.15;2.17;;;17.70;87.80;;;;;;5084277;28;20079;-69
2022/07/18 01:05:56;;;;;;;7.38;2.63;;;17.70;87.80;;;;;;5081765;28;20028;-74
2022/07/18 01:08:23;;;;;;;4.10;2.08;;;17.70;87.80;;;;;;5083590;28;20055;-70
2022/07/18 01:10:51;;;;;;;8.13;3.22;;;17.70;87.90;;;;;;5084541;28;20437;-69
2022/07/18 01:13:18;;;;;;;7.35;2.25;;;17.60;87.90;;;;;;5083346;28;20415;-71
2022/07/18 01:15:44;;;;;;;4.35;2.35;;;17.60;87.90;;;;;;5081098;28;20028;-69
2022/07/18 01:18:11;;;;;;;9.48;2.20;;;17.60;87.90;;;;;;5082242;28;20028;-70
2022/07/18 01:20:38;;;;;;;10.50;2.92;;;17.60;87.90;;;;;;5083445;28;20429;-68
2022/07/18 01:23:04;;;;;;;9.27;2.75;;;17.60;87.90;;;;;;5081209;28;20062;-70
2022/07/18 01:25:31;;;;;;;4.13;2.53;;;17.60;88.10;;;;;;5083369;28;20020;-68
2022/07/18 01:27:58;;;;;;;8.65;2.65;;;17.60;88.20;;;;;;5080863;28;20483;-71
2022/07/18 01:30:25;;;;;;;5.55;2.55;;;17.60;88.10;;;;;;5085416;28;20020;-74
2022/07/18 01:33:02;;;;;;;5.63;2.33;;;17.60;88.10;;;;;;5078852;28;20021;-67
2022/07/18 01:35:30;;;;;;;6.53;2.17;;;17.60;88.00;;;;;;5079682;28;20425;-68
2022/07/18 01:37:59;;;;;;;8.98;2.35;;;17.60;88.10;;;;;;5084842;28;20537;-69
2022/07/18 01:40:26;;;;;;;6.03;2.05;;;17.60;88.20;;;;;;5079287;28;20020;-69
2022/07/18 01:42:53;;;;;;;5.13;1.92;;;17.50;88.20;;;;;;5081515;28;20020;-70
2022/07/18 01:45:20;;;;;;;7.18;2.17;;;17.60;88.30;;;;;;5083033;28;20036;-68
2022/07/18 01:47:47;;;;;;;6.68;2.25;;;17.50;88.60;;;;;;5082548;28;20112;-68
2022/07/18 01:50:15;;;;;;;3.95;2.10;;;17.50;88.30;;;;;;5079104;28;20080;-70
2022/07/18 01:52:41;;;;;;;7.03;2.17;;;17.50;88.30;;;;;;5081500;28;20017;-72
2022/07/18 01:55:10;;;;;;;8.63;2.10;;;17.50;88.30;;;;;;5085291;28;20396;-68
2022/07/18 01:57:37;;;;;;;5.85;2.30;;;17.50;88.30;;;;;;5085467;28;20016;-68
2022/07/18 02:00:09;;;;;;;8.70;2.25;;;17.50;88.30;;;;;;5084797;28;20020;-68
2022/07/18 02:02:36;;;;;;;5.57;2.30;;;17.50;88.40;;;;;;5079814;28;20071;-68
2022/07/18 02:05:05;;;;;;;3.75;2.63;;;17.50;88.50;;;;;;5080503;28;20028;-68
2022/07/18 02:07:34;;;;;;;4.95;2.35;;;17.50;88.60;;;;;;5080358;28;20471;-69
2022/07/18 02:10:03;;;;;;;4.30;2.40;;;17.50;88.70;;;;;;5078297;28;20494;-67
2022/07/18 02:12:30;;;;;;;6.68;2.10;;;17.50;88.70;;;;;;5077022;28;20025;-69
2022/07/18 02:14:56;;;;;;;3.60;2.17;;;17.50;88.80;;;;;;5080167;28;20384;-68
2022/07/18 02:17:23;;;;;;;2.92;1.80;;;17.50;88.80;;;;;;5080439;28;20020;-69
2022/07/18 02:19:49;;;;;;;6.65;2.03;;;17.50;88.90;;;;;;5080073;28;20065;-68
2022/07/18 02:22:16;;;;;;;4.65;2.47;;;17.50;89.00;;;;;;5081299;28;20560;-69
2022/07/18 02:24:43;;;;;;;7.60;2.60;;;17.50;89.10;;;;;;5083088;28;20411;-67
2022/07/18 02:27:10;;;;;;;4.22;2.97;;;17.50;89.80;;;;;;5082486;28;20035;-69
2022/07/18 02:29:37;;;;;;;5.32;3.08;;;17.50;89.20;;;;;;5089515;28;20057;-68
2022/07/18 02:32:04;;;;;;;8.10;2.10;;;17.50;89.30;;;;;;5085309;28;20031;-70
2022/07/18 02:34:31;;;;;;;5.78;2.20;;;17.50;89.40;;;;;;5086674;28;20031;-69
2022/07/18 02:36:57;;;;;;;4.18;2.20;;;17.50;89.50;;;;;;5088395;28;20390;-68
2022/07/18 02:39:24;;;;;;;4.90;2.33;;;17.50;89.60;;;;;;5084262;28;20039;-69
2022/07/18 02:41:50;;;;;;;5.25;2.45;;;17.50;89.70;;;;;;5085971;28;20031;-69
2022/07/18 02:44:17;;;;;;;15.70;3.03;;;17.50;89.80;;;;;;5083789;28;20414;-71
2022/07/18 02:46:44;;;;;;;7.55;2.97;;;17.60;90.00;;;;;;5083979;28;20032;-68
2022/07/18 02:49:26;;;;;;;13.95;2.58;;;17.50;90.00;;;;;;5082925;28;20406;-73
2022/07/18 02:51:58;;;;;;;8.45;2.58;;;17.60;90.00;;;;;;5082213;28;20041;-72
2022/07/18 02:54:25;;;;;;;8.40;2.60;;;17.60;90.10;;;;;;5082087;28;20542;-69
2022/07/18 02:56:52;;;;;;;5.68;2.35;;;17.50;90.20;;;;;;5089609;28;20377;-72
2022/07/18 02:59:19;;;;;;;10.80;2.60;;;17.60;90.30;;;;;;5086112;28;20569;-71
2022/07/18 03:01:46;;;;;;;7.90;2.30;;;17.60;90.40;;;;;;5082940;28;20426;-73
2022/07/18 03:04:12;;;;;;;5.57;2.65;;;17.60;90.50;;;;;;5083161;28;20032;-70
2022/07/18 03:06:39;;;;;;;8.60;3.55;;;17.60;90.50;;;;;;5081854;28;20784;-73
2022/07/18 03:09:05;;;;;;;4.13;2.13;;;17.60;90.60;;;;;;5085877;28;20107;-68
2022/07/18 03:11:32;;;;;;;8.90;3.17;;;17.60;90.60;;;;;;5084315;28;20024;-70
2022/07/18 03:13:58;;;;;;;5.65;2.55;;;17.60;90.90;;;;;;5086743;28;20044;-71
2022/07/18 03:16:25;;;;;;;17.30;2.00;;;17.60;90.60;;;;;;5082898;28;20027;-70
2022/07/18 03:18:52;;;;;;;10.15;2.72;;;17.50;90.60;;;;;;5085653;28;20012;-71
2022/07/18 03:21:18;;;;;;;4.07;1.90;;;17.60;90.50;;;;;;5082597;28;20024;-72
2022/07/18 03:23:45;;;;;;;9.93;2.03;;;17.60;90.50;;;;;;5083803;28;20089;-71
2022/07/18 03:26:11;;;;;;;7.63;2.50;;;17.60;90.50;;;;;;5081939;28;20032;-71
2022/07/18 03:28:38;;;;;;;3.08;2.70;;;17.60;90.50;;;;;;5086975;28;20474;-72
2022/07/18 03:31:04;;;;;;;6.15;1.88;;;17.50;90.50;;;;;;5084662;28;20020;-73
2022/07/18 03:33:31;;;;;;;4.72;1.75;;;17.60;90.50;;;;;;5080391;28;20044;-74
2022/07/18 03:35:58;;;;;;;2.15;1.27;;;17.60;90.40;;;;;;5078944;28;20075;-71
2022/07/18 03:38:24;;;;;;;3.85;2.45;;;17.50;90.30;;;;;;5082241;28;20020;-70
2022/07/18 03:40:51;;;;;;;4.13;1.77;;;17.50;90.20;;;;;;5084246;28;20058;-72
2022/07/18 03:43:18;;;;;;;6.22;1.92;;;17.40;90.10;;;;;;5082245;28;20509;-71
2022/07/18 03:45:44;;;;;;;15.80;2.20;;;17.50;90.10;;;;;;5083318;28;20030;-73
2022/07/18 03:48:11;;;;;;;22.83;14.98;;;17.50;90.00;;;;;;5084235;28;20479;-71
2022/07/18 03:50:37;;;;;;;21.83;12.45;;;17.50;90.00;;;;;;5082321;28;20117;-69
2022/07/18 03:53:03;;;;;;;14.13;9.48;;;17.50;90.10;;;;;;5087807;28;20017;-72
2022/07/18 03:55:30;;;;;;;9.50;5.30;;;17.40;90.10;;;;;;5081167;28;20186;-68
2022/07/18 03:57:56;;;;;;;6.57;3.40;;;17.40;90.10;;;;;;5085704;28;20078;-73
2022/07/18 04:00:23;;;;;;;6.13;2.63;;;17.40;90.00;;;;;;5087199;28;20024;-71
2022/07/18 04:02:49;;;;;;;5.47;1.70;;;17.40;89.90;;;;;;5082587;28;20032;-70
2022/07/18 04:05:17;;;;;;;7.30;4.20;;;17.40;89.80;;;;;;5084745;28;20024;-72
2022/07/18 04:07:43;;;;;;;7.15;1.77;;;17.40;89.60;;;;;;5085223;28;20050;-67
2022/07/18 04:10:11;;;;;;;5.63;1.48;;;17.40;89.60;;;;;;5085202;28;20039;-70
2022/07/18 04:12:49;;;;;;;3.85;1.85;;;17.40;88.80;;;;;;5078922;28;20417;-72
2022/07/18 04:15:16;;;;;;;4.70;1.77;;;17.40;89.30;;;;;;5084932;28;20067;-69
2022/07/18 04:17:43;;;;;;;4.00;1.85;;;17.30;90.00;;;;;;5081118;28;20021;-72
2022/07/18 04:20:10;;;;;;;19.70;9.05;;;17.30;90.10;;;;;;5083185;28;20116;-72
2022/07/18 04:22:48;;;;;;;15.10;11.75;;;17.30;90.40;;;;;;5084357;28;20078;-68
2022/07/18 04:25:16;;;;;;;16.33;11.35;;;17.30;90.00;;;;;;5079331;28;20551;-70
2022/07/18 04:27:43;;;;;;;8.07;6.05;;;17.30;90.00;;;;;;5081701;28;20020;-73
2022/07/18 04:30:10;;;;;;;7.20;3.75;;;17.30;89.90;;;;;;5083713;28;20020;-74
2022/07/18 04:32:38;;;;;;;3.75;2.80;;;17.30;89.90;;;;;;5085776;28;20483;-74
2022/07/18 04:35:05;;;;;;;8.43;2.83;;;17.30;90.00;;;;;;5080447;28;20055;-78
2022/07/18 04:37:32;;;;;;;3.05;1.83;;;17.30;90.00;;;;;;5083538;28;20036;-80
2022/07/18 04:40:00;;;;;;;6.47;1.60;;;17.30;90.00;;;;;;5082604;28;20092;-75
2022/07/18 04:42:27;;;;;;;4.90;2.50;;;17.30;90.00;;;;;;5082136;28;20016;-74
2022/07/18 04:44:53;;;;;;;3.45;1.48;;;17.30;90.00;;;;;;5076506;28;20016;-75
2022/07/18 04:47:20;;;;;;;8.43;1.80;;;17.30;90.00;;;;;;5077968;28;20032;-73
2022/07/18 04:49:46;;;;;;;17.88;3.00;;;17.30;90.10;;;;;;5083904;28;20099;-72
2022/07/18 04:52:12;;;;;;;12.50;2.13;;;17.30;90.10;;;;;;5080139;28;20441;-70
2022/07/18 04:54:39;;;;;;;6.07;1.63;;;17.30;90.10;;;;;;5083928;28;20064;-69
2022/07/18 04:57:06;;;;;;;6.70;1.88;;;17.30;90.10;;;;;;5082261;28;20024;-68
2022/07/18 04:59:33;;;;;;;3.70;1.85;;;17.30;90.20;;;;;;5083619;28;20115;-71
2022/07/18 05:01:59;;;;;;;10.23;2.33;;;17.30;90.10;;;;;;5082226;28;20080;-69
2022/07/18 05:04:26;;;;;;;3.60;2.00;;;17.30;90.20;;;;;;5081269;28;20172;-69
2022/07/18 05:06:52;;;;;;;3.42;1.98;;;17.30;90.20;;;;;;5082454;28;20036;-68
2022/07/18 05:09:19;;;;;;;7.38;2.13;;;17.30;90.20;;;;;;5083629;28;20019;-68
2022/07/18 05:11:46;;;;;;;13.68;2.58;;;17.30;90.20;;;;;;5081237;28;20031;-70
2022/07/18 05:14:13;;;;;;;6.10;2.28;;;17.20;90.10;;;;;;5081438;28;20487;-70
2022/07/18 05:16:39;;;;;;;1.52;1.35;;;17.20;90.10;;;;;;5079750;28;20024;-69
2022/07/18 05:19:05;;;;;;;5.72;1.45;;;17.20;90.00;;;;;;5085305;28;20035;-69
2022/07/18 05:21:32;;;;;;;3.03;1.73;;;17.20;90.00;;;;;;5080432;28;20028;-69
2022/07/18 05:23:58;;;;;;;2.22;1.42;;;17.20;90.00;;;;;;5082280;28;20088;-69
2022/07/18 05:26:25;;;;;;;6.65;1.77;;;17.20;90.00;;;;;;5082453;28;20027;-68
2022/07/18 05:28:51;;;;;;;1.95;1.35;;;17.20;90.00;;;;;;5078679;28;20016;-68
2022/07/18 05:31:18;;;;;;;4.82;2.70;;;17.20;90.00;;;;;;5083507;28;20371;-69
2022/07/18 05:33:44;;;;;;;3.75;1.83;;;17.10;90.00;;;;;;5082339;28;20024;-70
2022/07/18 05:36:11;;;;;;;6.20;1.85;;;17.10;90.00;;;;;;5080249;28;20495;-68
2022/07/18 05:38:37;;;;;;;6.10;1.55;;;17.10;90.10;;;;;;5084359;28;20024;-69
2022/07/18 05:41:04;;;;;;;5.07;2.22;;;17.10;90.10;;;;;;5082334;28;20028;-68
2022/07/18 05:43:30;;;;;;;2.55;1.67;;;17.10;90.10;;;;;;5078863;28;20078;-71
2022/07/18 05:45:57;;;;;;;3.15;1.80;;;17.10;90.10;;;;;;5084163;28;20387;-71
2022/07/18 05:48:23;;;;;;;3.25;1.90;;;17.10;90.10;;;;;;5077082;28;20108;-71
2022/07/18 05:50:50;;;;;;;3.90;1.77;;;17.10;90.10;;;;;;5082309;28;20082;-70
2022/07/18 05:53:16;;;;;;;5.72;2.13;;;17.10;90.10;;;;;;5083072;28;20028;-71
2022/07/18 05:55:43;;;;;;;6.18;2.03;;;17.10;90.10;;;;;;5078575;28;20024;-71
2022/07/18 05:58:09;;;;;;;5.80;2.00;;;17.10;90.10;;;;;;5079904;28;20596;-71
2022/07/18 06:00:36;;;;;;;5.80;2.25;;;17.10;90.50;;;;;;5079971;28;20016;-69
2022/07/18 06:03:02;;;;;;;8.38;2.20;;;17.10;90.30;;;;;;5080215;28;20750;-69
2022/07/18 06:05:29;;;;;;;2.97;2.13;;;17.10;90.30;;;;;;5079150;28;20315;-69
2022/07/18 06:07:56;;;;;;;3.95;2.35;;;17.10;90.30;;;;;;5079835;28;20101;-70
2022/07/18 06:10:25;;;;;;;13.18;4.20;;;17.10;90.30;;;;;;5080335;28;20012;-69
2022/07/18 06:12:51;;;;;;;16.27;2.53;;;17.10;90.30;;;;;;5080935;28;20048;-70
2022/07/18 06:15:18;;;;;;;8.15;3.22;;;17.10;90.50;;;;;;5082450;28;20028;-71
2022/07/18 06:17:44;;;;;;;7.63;2.47;;;17.10;90.60;;;;;;5081881;28;20085;-69
2022/07/18 06:20:11;;;;;;;6.20;2.65;;;17.20;90.70;;;;;;5081913;28;20020;-69
2022/07/18 06:22:38;;;;;;;4.53;2.10;;;17.20;90.80;;;;;;5080475;28;20423;-70
2022/07/18 06:25:06;;;;;;;6.25;2.42;;;17.20;90.80;;;;;;5084412;28;20020;-70
2022/07/18 06:27:32;;;;;;;5.72;1.85;;;17.20;90.80;;;;;;5081452;28;20025;-69
2022/07/18 06:29:59;;;;;;;4.03;2.50;;;17.20;90.90;;;;;;5083103;28;20016;-71
2022/07/18 06:32:25;;;;;;;4.47;2.30;;;17.20;90.90;;;;;;5078038;28;20017;-71
2022/07/18 06:34:52;;;;;;;8.25;2.67;;;17.30;90.90;;;;;;5083883;28;20103;-69
2022/07/18 06:37:18;;;;;;;3.13;1.98;;;17.30;90.90;;;;;;5083447;28;20032;-70
2022/07/18 06:39:45;;;;;;;6.30;2.00;;;17.30;90.90;;;;;;5078292;28;20063;-69
2022/07/18 06:42:11;;;;;;;3.88;1.95;;;17.30;90.80;;;;;;5076304;28;20024;-68
2022/07/18 06:44:38;;;;;;;6.18;2.45;;;17.30;90.80;;;;;;5078550;28;20524;-71
2022/07/18 06:47:04;;;;;;;3.83;2.33;;;17.30;90.80;;;;;;5080327;28;20012;-70
2022/07/18 06:49:30;;;;;;;5.80;2.13;;;17.30;90.80;;;;;;5080944;28;20012;-68
2022/07/18 06:51:57;;;;;;;6.38;2.85;;;17.30;90.70;;;;;;5081153;28;20352;-69
2022/07/18 06:54:27;;;;;;;6.20;2.80;;;17.30;90.70;;;;;;5084831;28;20016;-70
2022/07/18 06:56:55;;;;;;;3.28;2.03;;;17.30;90.80;;;;;;5078014;28;20020;-70
2022/07/18 06:59:22;;;;;;;4.30;2.10;;;17.30;90.70;;;;;;5083039;28;20021;-70
2022/07/18 07:01:48;;;;;;;4.60;1.75;;;17.30;90.70;;;;;;5080654;28;20147;-70
2022/07/18 07:04:15;;;;;;;5.78;2.05;;;17.40;90.70;;;;;;5080915;28;20046;-68
2022/07/18 07:06:41;;;;;;;8.85;2.30;;;17.40;90.70;;;;;;5085569;28;20540;-70
2022/07/18 07:09:08;;;;;;;5.47;2.97;;;17.40;90.70;;;;;;5082868;28;20482;-68
2022/07/18 07:11:34;;;;;;;4.13;1.80;;;17.40;90.80;;;;;;5081277;28;20486;-68
2022/07/18 07:14:01;;;;;;;3.45;1.95;;;17.40;90.70;;;;;;5082986;28;20048;-68
2022/07/18 07:16:28;;;;;;;3.58;2.67;;;17.40;90.80;;;;;;5076767;28;20028;-71
2022/07/18 07:18:54;;;;;;;4.35;2.20;;;17.50;90.80;;;;;;5080842;28;20025;-71
2022/07/18 07:21:21;;;;;;;4.13;2.40;;;17.50;90.80;;;;;;5083239;28;20112;-71
2022/07/18 07:23:47;;;;;;;5.13;2.75;;;17.50;90.90;;;;;;5083474;28;20028;-71
2022/07/18 07:26:14;;;;;;;7.93;2.97;;;17.50;90.90;;;;;;5082901;28;20431;-69
2022/07/18 07:28:40;;;;;;;7.05;3.67;;;17.50;90.90;;;;;;5082598;28;20024;-70
2022/07/18 07:31:07;;;;;;;10.02;3.38;;;17.50;91.00;;;;;;5084183;28;20077;-71
2022/07/18 07:33:34;;;;;;;9.45;3.85;;;17.50;91.00;;;;;;5087345;28;20045;-71
2022/07/18 07:36:03;;;;;;;7.82;3.08;;;17.50;91.00;;;;;;5083942;28;20058;-68
2022/07/18 07:38:29;;;;;;;5.70;2.70;;;17.60;91.00;;;;;;5085250;28;20154;-71
2022/07/18 07:40:56;;;;;;;7.57;2.97;;;17.60;90.90;;;;;;5082836;28;20471;-71
2022/07/18 07:43:26;;;;;;;3.42;2.28;;;17.50;90.80;;;;;;5083393;28;20398;-68
2022/07/18 07:45:53;;;;;;;4.15;2.28;;;17.60;90.80;;;;;;5084425;28;20031;-70
2022/07/18 07:48:20;;;;;;;6.20;2.30;;;17.60;90.80;;;;;;5081621;28;20035;-69
2022/07/18 07:50:46;;;;;;;4.40;2.90;;;17.60;90.70;;;;;;5082452;28;20105;-70
2022/07/18 07:53:13;;;;;;;4.07;2.13;;;17.60;90.70;;;;;;5080653;28;20031;-69
2022/07/18 07:55:40;;;;;;;9.18;2.00;;;17.60;90.70;;;;;;5080265;28;20495;-68
2022/07/18 07:58:06;;;;;;;4.78;2.88;;;17.70;90.60;;;;;;5077635;28;20039;-69
2022/07/18 08:00:33;;;;;;;3.33;2.55;;;17.70;90.60;;;;;;5083458;28;20020;-68
2022/07/18 08:03:04;;;;;;;6.30;2.20;;;17.70;90.60;;;;;;5080844;28;20029;-68
2022/07/18 08:05:33;;;;;;;3.45;2.50;;;17.70;90.50;;;;;;5081300;28;20023;-70
2022/07/18 08:08:00;;;;;;;3.45;2.42;;;17.70;90.50;;;;;;5083292;28;20020;-70
2022/07/18 08:10:27;;;;;;;5.57;2.33;;;17.70;90.50;;;;;;5082461;28;20497;-71
2022/07/18 08:12:54;;;;;;;7.07;3.00;;;17.80;90.50;;;;;;5084779;28;20501;-70
2022/07/18 08:15:21;;;;;;;6.97;2.65;;;17.80;90.40;;;;;;5080400;28;20016;-72
2022/07/18 08:17:47;;;;;;;3.83;2.72;;;17.80;90.40;;;;;;5085211;28;20024;-71
2022/07/18 08:20:16;;;;;;;7.35;3.85;;;17.80;90.40;;;;;;5079404;28;20513;-71
2022/07/18 08:22:59;;;;;;;3.78;2.75;;;17.80;90.40;;;;;;5084354;28;20112;-71
2022/07/18 08:25:26;;;;;;;5.53;3.15;;;17.90;90.40;;;;;;5081706;28;20024;-69
2022/07/18 08:27:53;;;;;;;5.38;3.30;;;17.80;90.40;;;;;;5079186;28;20017;-71
2022/07/18 08:30:20;;;;;;;6.68;4.30;;;17.90;90.40;;;;;;5086042;28;20109;-71
2022/07/18 08:32:47;;;;;;;3.33;2.80;;;17.90;90.30;;;;;;5078552;28;20021;-71
2022/07/18 08:35:14;;;;;;;9.57;3.85;;;17.90;90.30;;;;;;5078850;28;20028;-72
2022/07/18 08:37:40;;;;;;;6.72;2.97;;;17.90;90.20;;;;;;5078315;28;20040;-71
2022/07/18 08:40:08;;;;;;;5.85;3.38;;;17.90;90.20;;;;;;5082081;28;20025;-71
2022/07/18 08:42:35;;;;;;;7.15;3.60;;;18.00;90.20;;;;;;5083585;28;20023;-70
2022/07/18 08:45:02;;;;;;;3.33;2.90;;;18.00;90.20;;;;;;5079424;28;20032;-70
2022/07/18 08:47:30;;;;;;;3.63;2.40;;;18.00;90.10;;;;;;5083287;28;20016;-71
2022/07/18 08:49:58;;;;;;;4.47;2.40;;;18.00;90.10;;;;;;5081177;28;20024;-71
2022/07/18 08:52:25;;;;;;;4.35;2.35;;;18.00;90.10;;;;;;5082321;28;20568;-71
2022/07/18 08:54:51;;;;;;;2.22;1.98;;;18.00;90.00;;;;;;5082452;28;20107;-71
2022/07/18 08:57:18;;;;;;;3.90;3.17;;;18.10;90.00;;;;;;5082625;28;20028;-70
2022/07/18 08:59:45;;;;;;;2.95;2.13;;;18.10;90.00;;;;;;5084713;28;20025;-71
2022/07/18 09:02:11;;;;;;;2.28;2.00;;;18.10;90.00;;;;;;5079824;28;20032;-71
2022/07/18 09:04:43;;;;;;;4.75;2.50;;;18.10;89.90;;;;;;5080856;28;20479;-71
2022/07/18 09:07:22;;;;;;;3.90;2.88;;;18.10;89.80;;;;;;5080731;28;20032;-71
2022/07/18 09:09:57;;;;;;;4.55;2.70;;;18.10;90.20;;;;;;5082217;28;20382;-71
2022/07/18 09:12:25;;;;;;;;;;;18.10;89.70;;;;;;5084356;28;20116;-71
2022/07/18 09:14:52;;;;;;;2.83;1.90;;;18.20;89.60;;;;;;5077168;28;19916;-71
2022/07/18 09:17:21;;;;;;;2.72;1.42;;;18.20;89.60;;;;;;5082537;28;20103;-71
2022/07/18 09:20:03;;;;;;;4.22;1.70;;;18.20;89.60;;;;;;5083632;28;20020;-70
2022/07/18 09:22:33;;;;;;;2.53;1.42;;;18.20;89.50;;;;;;5080246;28;20028;-71
2022/07/18 09:25:15;;;;;;;3.83;1.67;;;18.30;89.50;;;;;;5082843;28;20020;-71
2022/07/18 09:27:48;;;;;;;25.60;3.88;;;18.30;89.40;;;;;;5082054;28;20099;-70
2022/07/18 09:30:26;;;;;;;3.47;1.33;;;18.30;89.30;;;;;;5081171;28;20111;-70
2022/07/18 09:33:08;;;;;;;4.35;1.58;;;18.30;89.20;;;;;;5077959;28;20024;-70
2022/07/18 09:35:44;;;;;;;5.38;1.63;;;18.30;89.10;;;;;;5084546;28;20034;-71
2022/07/18 09:38:14;;;;;;;7.82;2.17;;;18.30;88.90;;;;;;5081624;28;20478;-71
2022/07/18 09:40:47;;;;;;;3.50;1.77;;;18.30;88.80;;;;;;5074655;28;20031;-70
2022/07/18 09:43:19;;;;;;;9.68;2.58;;;18.30;88.60;;;;;;5082198;28;20119;-69
2022/07/18 09:45:50;;;;;;;5.63;1.65;;;18.30;88.40;;;;;;5076794;28;20068;-70
2022/07/18 09:48:24;;;;;;;4.35;1.65;;;18.30;88.20;;;;;;5083788;28;20056;-70
2022/07/18 09:51:05;;;;;;;3.33;1.35;;;18.30;88.20;;;;;;5080861;28;20047;-69
2022/07/18 09:53:36;;;;;;;2.40;1.95;;;18.30;88.00;;;;;;5082047;28;20016;-71
2022/07/18 09:56:08;;;;;;;3.20;1.17;;;18.30;87.90;;;;;;5078590;28;20021;-70
2022/07/18 09:58:37;;;;;;;4.15;1.40;;;18.40;87.90;;;;;;5078419;28;20024;-69
2022/07/18 10:01:06;;;;;;;3.92;1.90;;;18.40;87.80;;;;;;5077295;28;20021;-69
2022/07/18 10:03:33;;;;;;;3.30;1.50;;;18.40;87.80;;;;;;5079595;28;20032;-68
2022/07/18 10:06:01;;;;;;;8.25;1.65;;;18.40;87.70;;;;;;5078025;28;20020;-68
2022/07/18 10:08:30;;;;;;;3.83;1.80;;;18.30;87.60;;;;;;5079430;28;20492;-70
2022/07/18 10:11:01;;;;;;;2.17;1.45;;;18.30;87.70;;;;;;5078138;28;20415;-71
2022/07/18 10:13:29;;;;;;;4.22;1.73;;;18.30;87.80;;;;;;5079915;28;20044;-71
2022/07/18 10:15:56;;;;;;;4.63;1.95;;;18.30;87.90;;;;;;5085244;28;20043;-71
2022/07/18 10:18:25;;;;;;;7.05;2.83;;;18.30;88.20;;;;;;5080716;28;20032;-71
2022/07/18 10:21:00;;;;;;;4.60;2.42;;;18.30;88.30;;;;;;5083848;28;20553;-71
2022/07/18 10:23:28;;;;;;;4.63;2.50;;;18.30;88.50;;;;;;5079882;28;20029;-70
2022/07/18 10:26:19;;;;;;;4.60;3.15;;;18.30;88.70;;;;;;5077966;28;20051;-69
2022/07/18 10:29:00;;;;;;;5.30;2.85;;;18.30;88.90;;;;;;5082293;28;20074;-71
2022/07/18 10:31:32;;;;;;;8.00;3.22;;;18.30;89.10;;;;;;5077494;28;20028;-71
2022/07/18 10:34:08;;;;;;;9.80;3.65;;;18.30;89.20;;;;;;5081413;28;20089;-71
2022/07/18 10:36:51;;;;;;;7.35;4.07;;;18.30;89.70;;;;;;5084670;28;20023;-70
2022/07/18 10:39:31;;;;;;;13.00;4.00;;;18.30;90.00;;;;;;5084377;28;20060;-71
2022/07/18 10:41:58;;;;;;;11.07;4.32;;;18.30;90.10;;;;;;5078612;28;20024;-72
2022/07/18 10:44:30;;;;;;;8.18;4.50;;;18.30;90.20;;;;;;5075786;28;20110;-71
2022/07/18 10:47:40;;;;;;;6.68;3.80;;;18.40;90.30;;;;;;5087795;28;20027;-70
2022/07/18 10:50:02;;;;;;;8.18;3.45;;;18.40;90.30;;;;;;5081004;28;20036;-69
2022/07/18 10:52:32;;;;;;;7.55;3.10;;;18.50;90.50;;;;;;5084476;28;20028;-68
2022/07/18 10:55:05;;;;;;;7.35;3.00;;;18.50;90.40;;;;;;5084288;28;20008;-70
2022/07/18 10:57:40;;;;;;;8.45;3.38;;;18.60;90.40;;;;;;5086148;28;20124;-69
2022/07/18 11:00:09;;;;;;;7.00;3.40;;;18.70;90.30;;;;;;5083303;28;20012;-69
2022/07/18 11:02:46;;;;;;;5.00;3.50;;;18.60;90.40;;;;;;5083788;28;20028;-69
2022/07/18 11:05:25;;;;;;;5.28;3.28;;;18.70;90.10;;;;;;5080137;28;20024;-68
2022/07/18 11:08:04;;;;;;;7.10;3.00;;;18.70;89.90;;;;;;5087262;28;20110;-69
2022/07/18 11:11:03;;;;;;;7.55;3.10;;;18.80;89.80;;;;;;5082542;28;20046;-68
2022/07/18 11:13:37;;;;;;;7.60;3.28;;;18.80;89.40;;;;;;5081144;28;20491;-70
2022/07/18 11:16:09;;;;;;;8.10;3.53;;;18.90;89.20;;;;;;5080511;28;20428;-70
2022/07/18 11:18:42;;;;;;;4.57;3.20;;;18.90;88.90;;;;;;5083758;28;20119;-71
2022/07/18 11:21:32;;;;;;;7.40;3.45;;;19.00;88.70;;;;;;5084324;28;20032;-68
2022/07/18 11:24:06;;;;;;;5.13;2.15;;;19.00;88.50;;;;;;5077411;28;20032;-71
2022/07/18 11:26:38;;;;;;;7.30;2.42;;;19.10;88.20;;;;;;5084909;28;20421;-68
2022/07/18 11:29:07;;;;;;;3.88;1.85;;;19.10;88.40;;;;;;5085599;28;20024;-70
2022/07/18 11:31:44;;;;;;;9.50;2.35;;;19.10;87.50;;;;;;5079411;28;20028;-69
2022/07/18 11:34:11;;;;;;;5.22;1.90;;;19.20;87.40;;;;;;5076963;28;20024;-68
2022/07/18 11:36:41;;;;;;;5.68;2.70;;;19.20;87.30;;;;;;5084113;28;20051;-71
2022/07/18 11:39:09;;;;;;;7.03;2.97;;;19.20;87.10;;;;;;5083074;28;20027;-69
2022/07/18 11:41:41;;;;;;;6.13;2.85;;;19.20;87.00;;;;;;5086564;28;20104;-68
2022/07/18 11:44:21;;;;;;;10.13;3.03;;;19.20;86.70;;;;;;5079705;28;20085;-69
2022/07/18 11:46:48;;;;;;;3.17;2.08;;;19.20;86.30;;;;;;5085969;28;20019;-70
2022/07/18 11:49:14;;;;;;;5.78;2.40;;;19.20;86.00;;;;;;5081836;28;20108;-69
2022/07/18 11:51:44;;;;;;;4.03;2.30;;;19.10;85.80;;;;;;5084067;28;20529;-71
2022/07/18 11:54:21;;;;;;;9.85;2.70;;;19.00;85.60;;;;;;5083563;28;20066;-71
2022/07/18 11:56:51;;;;;;;4.22;2.03;;;19.00;85.50;;;;;;5081539;28;20069;-68
2022/07/18 11:59:18;;;;;;;7.28;3.30;;;19.00;85.40;;;;;;5081757;28;20081;-71
2022/07/18 12:01:46;;;;;;;2.50;1.95;;;18.90;85.30;;;;;;5085053;28;20488;-68
2022/07/18 12:04:21;;;;;;;4.00;2.15;;;18.90;85.40;;;;;;5085601;28;20165;-70
2022/07/18 12:07:16;;;;;;;5.88;2.38;;;18.90;85.30;;;;;;5083946;28;20028;-68
2022/07/18 12:09:43;;;;;;;3.95;2.08;;;18.90;85.30;;;;;;5085701;28;20024;-68
2022/07/18 12:12:11;;;;;;;7.75;2.88;;;18.90;85.30;;;;;;5082258;28;20043;-69
2022/07/18 12:14:38;;;;;;;5.72;2.22;;;18.80;85.20;;;;;;5084201;28;20036;-68
2022/07/18 12:17:06;;;;;;;4.55;2.67;;;18.80;85.10;;;;;;5080018;28;20044;-68
2022/07/18 12:19:35;;;;;;;3.90;2.88;;;18.80;85.10;;;;;;5082534;28;20028;-67
2022/07/18 12:22:08;;;;;;;8.20;3.28;;;18.80;85.00;;;;;;5084316;28;20366;-69
2022/07/18 12:24:39;;;;;;;5.95;3.25;;;18.80;85.00;;;;;;5080757;28;20039;-71
2022/07/18 12:27:17;;;;;;;6.72;2.90;;;18.80;84.90;;;;;;5080480;28;20012;-69
2022/07/18 12:30:10;;;;;;;5.32;2.90;;;18.80;84.90;;;;;;5081184;28;20035;-68
2022/07/18 12:32:44;;;;;;;14.20;4.18;;;18.80;84.80;;;;;;5080526;28;20020;-68
2022/07/18 12:35:12;;;;;;;4.80;3.00;;;18.80;84.90;;;;;;5082806;28;20028;-69
2022/07/18 12:37:39;;;;;;;7.13;3.15;;;18.80;84.90;;;;;;5083972;28;20282;-68
2022/07/18 12:40:09;;;;;;;4.43;3.65;;;18.80;84.90;;;;;;5083101;28;20387;-68
2022/07/18 12:42:42;;;;;;;4.75;2.80;;;18.80;84.80;;;;;;5080894;28;20106;-68
2022/07/18 12:45:12;;;;;;;6.70;4.13;;;18.90;84.80;;;;;;5078805;28;20027;-68
2022/07/18 12:47:39;;;;;;;4.07;2.92;;;18.90;84.60;;;;;;5080259;28;20023;-68
2022/07/18 12:50:07;;;;;;;5.82;2.60;;;18.90;84.50;;;;;;5082996;28;20085;-68
2022/07/18 12:52:34;;;;;;;6.35;2.53;;;18.90;84.40;;;;;;5083452;28;20020;-68
2022/07/18 12:55:00;;;;;;;6.00;2.85;;;18.90;84.30;;;;;;5080109;28;20035;-68
2022/07/18 12:57:27;;;;;;;4.30;1.50;;;18.90;84.20;;;;;;5076228;28;20028;-68